createdAt,value
2019-05-18T00:05:38.839Z,42.20
2019-05-18T06:27:58.314Z,39.95
2019-05-18T06:30:49.641Z,37.55
2019-05-18T06:33:40.330Z,37.58
2019-05-18T06:36:18.712Z,39.45
2019-05-18T06:44:29.295Z,38.70
2019-05-18T06:47:07.016Z,38.98
2019-05-18T06:49:57.360Z,37.17
2019-05-18T06:52:40.989Z,37.70
2019-05-18T06:55:30.351Z,39.25
2019-05-18T06:58:09.625Z,37.55
2019-05-18T07:00:41.629Z,37.15
2019-05-18T07:03:21.815Z,39.18
2019-05-18T07:06:03.301Z,39.67
2019-05-18T07:08:37.717Z,36.88
2019-05-18T07:11:10.650Z,38.50
2019-05-18T07:13:58.596Z,37.35
2019-05-18T07:17:15.201Z,38.67
2019-05-18T07:25:33.080Z,36.98
2019-05-18T07:28:02.993Z,37.55
2019-05-18T07:30:33.705Z,37.70
2019-05-18T07:33:05.066Z,38.13
2019-05-18T07:35:34.814Z,38.25
2019-05-18T07:38:06.880Z,37.28
2019-05-18T07:40:48.820Z,38.88
2019-05-18T07:43:58.288Z,38.48
2019-05-18T07:52:35.839Z,39.58
2019-05-18T07:55:08.610Z,38.13
2019-05-18T07:57:40.867Z,39.35
2019-05-18T08:00:16.397Z,40.05
2019-05-18T08:03:07.279Z,36.48
2019-05-18T08:05:44.520Z,37.83
2019-05-18T08:11:33.692Z,38.67
2019-05-18T08:14:04.612Z,37.10
2019-05-18T08:16:36.129Z,35.13
2019-05-18T08:19:06.112Z,36.35
2019-05-18T08:21:35.875Z,36.42
2019-05-18T08:24:05.787Z,35.58
2019-05-18T08:26:37.283Z,38.10
2019-05-18T08:32:10.638Z,36.65
2019-05-18T08:35:05.152Z,36.33
2019-05-18T08:40:57.700Z,35.52
2019-05-18T08:43:37.612Z,37.45
2019-05-18T08:46:28.382Z,35.03
2019-05-18T08:49:10.933Z,34.88
2019-05-18T08:51:46.434Z,35.98
2019-05-18T08:54:16.159Z,35.43
2019-05-18T08:56:45.948Z,34.13
2019-05-18T08:59:15.729Z,32.63
2019-05-18T09:01:55.841Z,34.95
2019-05-18T09:04:25.668Z,33.05
2019-05-18T09:06:56.685Z,33.65
2019-05-18T09:09:26.603Z,32.38
2019-05-18T09:11:56.436Z,32.73
2019-05-18T09:14:28.131Z,33.60
2019-05-18T09:16:58.014Z,32.65
2019-05-18T09:19:29.347Z,32.63
2019-05-18T09:21:59.302Z,32.70
2019-05-18T09:24:29.280Z,31.17
2019-05-18T09:26:59.058Z,33.00
2019-05-18T09:29:29.665Z,31.33
2019-05-18T09:31:59.513Z,32.60
2019-05-18T09:34:34.821Z,32.28
2019-05-18T09:37:08.703Z,31.50
2019-05-18T09:40:12.775Z,30.08
2019-05-18T09:42:40.627Z,33.28
2019-05-18T09:45:30.361Z,32.58
2019-05-18T09:51:03.095Z,31.65
2019-05-18T09:56:56.606Z,30.75
2019-05-18T09:59:26.551Z,28.60
2019-05-18T10:02:04.000Z,27.37
2019-05-18T10:04:37.438Z,28.30
2019-05-18T10:07:20.587Z,28.55
2019-05-18T10:09:50.298Z,29.57
2019-05-18T10:12:26.310Z,28.23
2019-05-18T10:17:53.849Z,27.17
2019-05-18T10:26:08.105Z,25.32
2019-05-18T10:28:38.282Z,25.88
2019-05-18T10:31:08.155Z,23.47
2019-05-18T10:33:39.622Z,25.57
2019-05-18T10:36:11.973Z,26.48
2019-05-18T10:41:33.756Z,23.55
2019-05-18T10:44:09.816Z,23.05
2019-05-18T10:46:44.235Z,26.20
2019-05-18T10:49:37.834Z,26.20
2019-05-18T10:52:07.659Z,23.18
2019-05-18T10:54:41.992Z,23.52
2019-05-18T10:57:14.550Z,24.60
2019-05-18T10:59:53.649Z,22.98
2019-05-18T11:02:23.510Z,25.05
2019-05-18T11:04:53.504Z,22.77
2019-05-18T11:07:42.734Z,23.27
2019-05-18T11:10:19.734Z,23.40
2019-05-18T11:15:21.608Z,24.23
2019-05-18T11:17:53.372Z,23.45
2019-05-18T11:20:26.096Z,22.70
2019-05-18T11:22:56.924Z,23.98
2019-05-18T11:25:26.985Z,22.87
2019-05-18T11:27:58.496Z,23.35
2019-05-18T11:30:31.637Z,21.35
2019-05-18T11:33:05.163Z,21.12
2019-05-18T11:35:37.318Z,21.15
2019-05-18T11:38:10.538Z,20.02
2019-05-18T11:40:41.077Z,21.07
2019-05-18T11:43:10.783Z,21.40
2019-05-18T11:45:40.499Z,20.40
2019-05-18T11:48:10.327Z,18.35
2019-05-18T11:50:42.967Z,19.37
2019-05-18T11:53:12.979Z,19.50
2019-05-18T11:55:43.814Z,19.32
2019-05-18T11:58:13.455Z,18.92
2019-05-18T12:00:43.246Z,20.37
2019-05-18T12:03:13.089Z,21.05
2019-05-18T12:05:43.215Z,18.75
2019-05-18T12:08:13.201Z,19.07
2019-05-18T12:10:43.626Z,18.70
2019-05-18T12:13:13.440Z,20.30
2019-05-18T12:15:43.334Z,19.95
2019-05-18T12:18:13.226Z,18.45
2019-05-18T12:20:43.345Z,17.00
2019-05-18T12:23:13.282Z,16.77
2019-05-18T12:25:43.019Z,17.25
2019-05-18T12:28:12.877Z,18.20
2019-05-18T12:30:42.752Z,15.63
2019-05-18T12:33:13.483Z,16.02
2019-05-18T12:35:43.192Z,15.53
2019-05-18T12:38:13.051Z,15.83
2019-05-18T12:40:42.866Z,15.10
2019-05-18T12:43:12.656Z,14.35
2019-05-18T12:45:42.488Z,15.68
2019-05-18T12:48:12.605Z,16.67
2019-05-18T12:50:42.524Z,15.10
2019-05-18T12:53:15.947Z,16.90
2019-05-18T12:55:45.689Z,17.77
2019-05-18T12:58:15.428Z,17.75
2019-05-18T13:00:45.196Z,15.35
2019-05-18T13:03:15.017Z,16.27
2019-05-18T13:05:44.726Z,17.48
2019-05-18T13:08:14.369Z,16.93
2019-05-18T13:10:44.129Z,17.95
2019-05-18T13:13:14.239Z,16.27
2019-05-18T13:15:44.056Z,18.15
2019-05-18T13:18:13.871Z,17.73
2019-05-18T13:20:43.490Z,16.70
2019-05-18T13:23:13.364Z,18.45
2019-05-18T13:25:43.094Z,18.32
2019-05-18T13:28:12.771Z,18.48
2019-05-18T13:30:42.791Z,18.02
2019-05-18T13:33:12.611Z,18.12
2019-05-18T13:35:45.437Z,16.62
2019-05-18T13:38:13.827Z,17.17
2019-05-18T13:40:43.515Z,17.25
2019-05-18T13:43:15.114Z,20.32
2019-05-18T13:45:44.898Z,17.75
2019-05-18T13:48:14.518Z,16.75
2019-05-18T13:50:44.858Z,15.25
2019-05-18T13:53:14.678Z,15.68
2019-05-18T13:55:44.285Z,16.20
2019-05-18T13:58:14.170Z,16.90
2019-05-18T14:00:44.079Z,17.42
2019-05-18T14:03:13.746Z,16.48
2019-05-18T14:05:43.437Z,16.97
2019-05-18T14:08:15.827Z,15.80
2019-05-18T14:10:44.588Z,16.82
2019-05-18T14:13:14.260Z,16.15
2019-05-18T14:15:44.208Z,16.07
2019-05-18T14:18:13.858Z,17.05
2019-05-18T14:20:43.526Z,17.52
2019-05-18T14:23:13.247Z,16.37
2019-05-18T14:25:45.970Z,16.97
2019-05-18T14:28:14.391Z,18.45
2019-05-18T14:30:44.245Z,18.40
2019-05-18T14:33:13.900Z,17.98
2019-05-18T14:35:43.744Z,16.73
2019-05-18T14:38:13.529Z,16.07
2019-05-18T14:40:43.391Z,17.17
2019-05-18T14:43:13.032Z,16.23
2019-05-18T14:45:42.827Z,21.20
2019-05-18T14:48:12.641Z,24.45
2019-05-18T14:50:43.177Z,20.90
2019-05-18T14:53:14.824Z,15.98
2019-05-18T14:55:44.587Z,15.30
2019-05-18T14:58:14.305Z,16.05
2019-05-18T15:00:44.026Z,16.40
2019-05-18T15:03:14.658Z,17.70
2019-05-18T15:05:44.325Z,15.43
2019-05-18T15:08:14.339Z,16.85
2019-05-18T15:10:44.128Z,15.70
2019-05-18T15:13:15.318Z,14.70
2019-05-18T15:15:45.019Z,14.58
2019-05-18T15:18:14.658Z,14.60
2019-05-18T15:20:44.300Z,14.00
2019-05-18T15:23:13.872Z,15.28
2019-05-18T15:25:50.659Z,17.37
2019-05-18T15:28:15.092Z,16.05
2019-05-18T15:30:44.803Z,15.95
2019-05-18T15:33:14.402Z,18.12
2019-05-18T15:35:44.135Z,19.32
2019-05-18T15:38:13.759Z,19.65
2019-05-18T15:40:43.677Z,20.70
2019-05-18T15:43:13.334Z,19.20
2019-05-18T15:45:43.037Z,20.65
2019-05-18T15:48:12.814Z,18.77
2019-05-18T15:50:42.439Z,20.12
2019-05-18T15:53:12.163Z,19.62
2019-05-18T15:55:41.811Z,20.15
2019-05-18T15:58:11.498Z,19.98
2019-05-18T16:00:41.233Z,20.08
2019-05-18T16:03:10.943Z,19.65
2019-05-18T16:05:40.749Z,20.32
2019-05-18T16:08:10.528Z,18.55
2019-05-18T16:10:40.257Z,17.80
2019-05-18T16:13:09.980Z,19.00
2019-05-18T16:15:39.745Z,19.17
2019-05-18T16:18:09.555Z,18.67
2019-05-18T16:20:39.246Z,16.55
2019-05-18T16:23:09.262Z,18.62
2019-05-18T16:25:39.043Z,18.92
2019-05-18T16:28:08.760Z,19.52
2019-05-18T16:30:38.386Z,19.50
2019-05-18T16:33:08.126Z,20.12
2019-05-18T16:35:37.845Z,18.95
2019-05-18T16:38:07.501Z,19.02
2019-05-18T16:40:37.234Z,19.50
2019-05-18T16:43:06.937Z,20.65
2019-05-18T16:45:36.637Z,21.75
2019-05-18T16:48:06.350Z,20.17
2019-05-18T16:50:36.038Z,19.75
2019-05-18T16:53:15.561Z,19.27
2019-05-18T16:55:45.275Z,19.65
2019-05-18T16:58:14.950Z,21.42
2019-05-18T17:00:44.699Z,21.68
2019-05-18T17:07:13.213Z,20.95
2019-05-18T17:09:42.854Z,20.05
2019-05-18T17:12:12.499Z,18.90
2019-05-18T17:14:42.328Z,19.40
2019-05-18T17:17:12.124Z,19.92
2019-05-18T17:19:41.859Z,19.57
2019-05-18T17:22:11.552Z,19.12
2019-05-18T17:24:41.383Z,19.52
2019-05-18T17:27:11.114Z,19.57
2019-05-18T17:29:40.805Z,23.15
2019-05-18T17:32:10.449Z,20.55
2019-05-18T17:34:40.176Z,19.73
2019-05-18T17:37:09.898Z,20.15
2019-05-18T17:39:39.575Z,20.88
2019-05-18T17:42:09.372Z,20.97
2019-05-18T17:44:39.216Z,19.10
2019-05-18T17:47:08.928Z,20.85
2019-05-18T17:49:38.539Z,20.62
2019-05-18T17:52:08.191Z,18.73
2019-05-18T17:54:37.878Z,17.57
2019-05-18T17:57:09.033Z,20.08
2019-05-18T17:59:39.149Z,23.65
2019-05-18T18:02:08.886Z,32.90
2019-05-18T18:04:38.631Z,35.68
2019-05-18T18:07:08.413Z,36.05
2019-05-18T18:09:38.256Z,38.78
2019-05-18T18:12:07.867Z,40.98
2019-05-18T18:14:37.505Z,39.33
2019-05-18T18:17:07.292Z,41.85
2019-05-18T18:19:36.924Z,42.15
2019-05-18T18:22:06.732Z,40.60
2019-05-18T18:24:36.490Z,39.40
2019-05-18T18:27:06.667Z,40.15
2019-05-18T18:29:36.405Z,42.38
2019-05-18T18:32:06.209Z,41.60
2019-05-18T18:34:36.446Z,38.67
2019-05-18T18:39:50.358Z,40.35
2019-05-18T18:44:54.616Z,41.15
2019-05-18T18:47:26.082Z,41.73
2019-05-18T18:49:56.829Z,39.38
2019-05-18T18:52:31.499Z,40.52
2019-05-18T18:55:00.090Z,40.63
2019-05-18T18:57:40.625Z,45.73
2019-05-18T19:00:07.828Z,46.77
2019-05-18T19:02:37.646Z,48.83
2019-05-18T19:05:08.474Z,48.50
2019-05-18T19:07:38.242Z,51.10
2019-05-18T19:10:08.752Z,47.90
2019-05-18T19:12:38.735Z,49.25
2019-05-18T19:15:09.725Z,47.58
2019-05-18T19:17:39.467Z,49.77
2019-05-18T19:20:09.882Z,49.13
2019-05-18T19:22:39.679Z,51.98
2019-05-18T19:25:10.470Z,48.17
2019-05-18T19:27:52.705Z,50.30
2019-05-18T19:30:12.289Z,52.58
2019-05-18T19:32:42.045Z,51.00
2019-05-18T19:35:25.660Z,54.90
2019-05-18T19:37:55.358Z,53.25
2019-05-18T19:40:25.080Z,52.25
2019-05-18T19:42:54.795Z,50.98
2019-05-18T19:45:24.649Z,54.00
2019-05-18T19:47:54.481Z,54.13
2019-05-18T19:50:24.541Z,53.65
2019-05-18T19:52:54.358Z,57.55
2019-05-18T19:55:24.242Z,55.83
2019-05-18T19:57:53.963Z,54.23
2019-05-18T20:00:24.510Z,57.62
2019-05-18T20:02:54.490Z,57.93
2019-05-18T20:05:25.425Z,54.83
2019-05-18T20:07:55.257Z,54.77
2019-05-18T20:10:25.040Z,57.40
2019-05-18T20:12:54.780Z,58.00
2019-05-18T20:15:24.550Z,57.25
2019-05-18T20:17:54.331Z,57.53
2019-05-18T20:20:24.125Z,57.05
2019-05-18T20:22:53.923Z,57.27
2019-05-18T20:25:23.558Z,59.23
2019-05-18T20:27:53.258Z,57.70
2019-05-18T20:30:23.201Z,58.42
2019-05-18T20:32:52.848Z,57.67
2019-05-18T20:35:25.676Z,60.83
2019-05-18T20:37:54.094Z,57.00
2019-05-18T20:40:23.780Z,60.00
2019-05-18T20:42:53.394Z,63.17
2019-05-18T20:45:23.322Z,63.45
2019-05-18T20:47:53.045Z,62.62
2019-05-18T20:50:22.759Z,62.60
2019-05-18T20:52:52.576Z,63.98
2019-05-18T20:55:22.317Z,63.75
2019-05-18T20:57:52.094Z,63.48
2019-05-18T21:00:22.214Z,65.10
2019-05-18T21:02:51.904Z,65.15
2019-05-18T21:05:21.966Z,61.68
2019-05-18T21:07:51.872Z,66.77
2019-05-18T21:10:21.646Z,63.85
2019-05-18T21:12:52.312Z,63.92
2019-05-18T21:15:22.377Z,64.03
2019-05-18T21:17:52.091Z,66.97
2019-05-18T21:20:21.912Z,63.33
2019-05-18T21:22:51.613Z,64.77
2019-05-18T21:25:21.425Z,61.75
2019-05-18T21:27:51.222Z,64.92
2019-05-18T21:30:21.254Z,62.55
2019-05-18T21:32:51.126Z,64.55
2019-05-18T21:35:20.894Z,64.27
2019-05-18T21:37:50.572Z,63.83
2019-05-18T21:40:20.391Z,68.52
2019-05-18T21:42:50.111Z,66.75
2019-05-18T21:45:20.046Z,64.60
2019-05-18T21:47:49.757Z,64.45
2019-05-18T21:50:19.470Z,62.58
2019-05-18T21:52:49.211Z,64.58
2019-05-18T21:55:19.006Z,67.25
2019-05-18T21:57:48.911Z,63.68
2019-05-18T22:00:20.847Z,64.62
2019-05-18T22:02:52.000Z,63.60
2019-05-18T22:05:21.708Z,63.30
2019-05-18T22:07:51.510Z,62.03
2019-05-18T22:10:25.903Z,62.15
2019-05-18T22:12:53.171Z,62.85
2019-05-18T22:15:23.178Z,64.25
2019-05-18T22:18:04.577Z,63.70
2019-05-18T22:20:43.118Z,61.30
2019-05-18T22:23:08.151Z,63.45
2019-05-18T22:25:37.905Z,60.35
2019-05-18T22:28:07.795Z,61.88
2019-05-18T22:30:37.498Z,62.00
2019-05-18T22:33:07.209Z,65.90
2019-05-18T22:35:37.543Z,59.63
2019-05-18T22:38:07.338Z,62.13
2019-05-18T22:40:37.073Z,63.35
2019-05-18T22:43:06.827Z,63.92
2019-05-18T22:45:36.853Z,63.20
2019-05-18T22:48:06.649Z,60.73
2019-05-18T22:50:36.363Z,66.20
2019-05-18T22:53:06.162Z,66.22
2019-05-18T22:55:36.153Z,63.80
2019-05-18T22:58:05.884Z,64.10
2019-05-18T23:00:35.692Z,62.67
2019-05-18T23:03:05.443Z,64.92
2019-05-18T23:05:35.177Z,64.67
2019-05-18T23:08:05.482Z,64.30
2019-05-18T23:10:36.872Z,65.57
2019-05-18T23:13:07.394Z,63.30
2019-05-18T23:15:37.689Z,64.00
2019-05-18T23:18:07.355Z,64.37
2019-05-18T23:20:36.980Z,66.20
2019-05-18T23:23:06.675Z,62.75
2019-05-18T23:25:36.375Z,64.53
2019-05-18T23:28:06.018Z,68.35
2019-05-18T23:30:35.636Z,69.03
2019-05-18T23:33:05.385Z,65.80
2019-05-18T23:35:35.438Z,68.10
2019-05-18T23:38:05.145Z,66.20
2019-05-18T23:40:34.832Z,66.45
2019-05-18T23:43:04.527Z,64.40
2019-05-18T23:45:35.096Z,69.32
2019-05-18T23:48:04.797Z,67.55
2019-05-18T23:50:34.516Z,67.15
2019-05-18T23:54:14.883Z,68.12
2019-05-18T23:56:44.613Z,70.17
2019-05-18T23:59:14.327Z,69.20
